createdAt,value
2022-10-02T00:02:10.998Z,12.41
2022-10-02T00:05:36.433Z,12.43
2022-10-02T00:09:01.846Z,12.45
2022-10-02T00:12:27.276Z,12.48
2022-10-02T00:15:52.671Z,12.5
2022-10-02T00:19:18.069Z,12.51
2022-10-02T00:22:43.477Z,12.52
2022-10-02T00:26:08.879Z,12.54
2022-10-02T00:29:34.302Z,12.55
2022-10-02T00:32:59.706Z,12.57
2022-10-02T00:36:25.111Z,12.59
2022-10-02T00:39:50.472Z,12.59
2022-10-02T00:43:15.910Z,12.6
2022-10-02T00:46:41.336Z,12.59
2022-10-02T00:50:06.689Z,12.58
2022-10-02T00:53:32.110Z,12.59
2022-10-02T00:56:57.519Z,12.56
2022-10-02T01:00:22.911Z,12.56
2022-10-02T01:03:48.313Z,12.57
2022-10-02T01:07:13.726Z,12.56
2022-10-02T01:10:40.046Z,12.55
2022-10-02T01:14:05.428Z,12.55
2022-10-02T01:17:30.853Z,12.56
2022-10-02T01:20:56.314Z,12.57
2022-10-02T01:24:21.640Z,12.57
2022-10-02T01:27:47.114Z,12.55
2022-10-02T01:31:12.467Z,12.54
2022-10-02T01:34:37.894Z,12.52
2022-10-02T01:38:03.323Z,12.51
2022-10-02T01:41:28.748Z,12.52
2022-10-02T01:44:54.148Z,12.53
2022-10-02T01:48:19.573Z,12.52
2022-10-02T01:51:44.940Z,12.51
2022-10-02T01:55:10.354Z,12.46
2022-10-02T01:58:35.758Z,12.45
2022-10-02T02:02:01.281Z,12.46
2022-10-02T02:05:26.574Z,12.48
2022-10-02T02:08:51.956Z,12.52
2022-10-02T02:12:17.382Z,12.51
2022-10-02T02:15:42.751Z,12.51
2022-10-02T02:19:08.282Z,12.5
2022-10-02T02:22:33.744Z,12.51
2022-10-02T02:25:59.156Z,12.48
2022-10-02T02:29:24.547Z,12.5
2022-10-02T02:32:49.937Z,12.52
2022-10-02T02:36:15.368Z,12.54
2022-10-02T02:39:40.783Z,12.56
2022-10-02T02:43:06.203Z,12.57
2022-10-02T02:46:31.613Z,12.57
2022-10-02T02:49:56.961Z,12.58
2022-10-02T02:53:22.351Z,12.58
2022-10-02T02:56:47.779Z,12.55
2022-10-02T03:00:13.184Z,12.57
2022-10-02T03:03:38.605Z,12.57
2022-10-02T03:07:04.047Z,12.55
2022-10-02T03:10:29.438Z,12.57
2022-10-02T03:13:54.840Z,12.6
2022-10-02T03:17:20.225Z,12.62
2022-10-02T03:20:45.751Z,12.67
2022-10-02T03:24:11.024Z,12.74
2022-10-02T03:27:36.401Z,12.76
2022-10-02T03:31:01.862Z,12.8
2022-10-02T03:34:27.231Z,12.84
2022-10-02T03:37:52.642Z,12.88
2022-10-02T03:41:18.016Z,12.91
2022-10-02T03:44:43.461Z,12.92
2022-10-02T03:48:08.884Z,12.94
2022-10-02T03:51:34.310Z,12.95
2022-10-02T03:54:59.769Z,12.96
2022-10-02T03:58:25.085Z,12.98
2022-10-02T04:01:50.608Z,13.02
2022-10-02T04:05:15.961Z,13.05
2022-10-02T04:08:41.339Z,13.09
2022-10-02T04:12:06.778Z,13.1
2022-10-02T04:15:32.166Z,13.12
2022-10-02T04:18:57.573Z,13.12
2022-10-02T04:22:23.004Z,13.18
2022-10-02T04:25:48.402Z,13.19
2022-10-02T04:29:13.822Z,13.22
2022-10-02T04:32:39.209Z,13.2
2022-10-02T04:36:04.638Z,13.23
2022-10-02T04:39:30.035Z,13.25
2022-10-02T04:42:55.418Z,13.28
2022-10-02T04:46:20.820Z,13.29
2022-10-02T04:49:46.185Z,13.33
2022-10-02T04:53:11.607Z,13.35
2022-10-02T04:56:37.174Z,13.39
2022-10-02T05:00:02.444Z,13.4
2022-10-02T05:03:27.843Z,13.41
2022-10-02T05:06:53.219Z,13.42
2022-10-02T05:10:18.661Z,13.47
2022-10-02T05:13:44.031Z,13.5
2022-10-02T05:17:09.427Z,13.49
2022-10-02T05:20:34.861Z,13.46
2022-10-02T05:24:00.248Z,13.47
2022-10-02T05:27:25.661Z,13.47
2022-10-02T05:30:51.085Z,13.49
2022-10-02T05:34:16.469Z,13.51
2022-10-02T05:37:41.881Z,13.51
2022-10-02T05:41:07.307Z,13.48
2022-10-02T05:44:32.810Z,13.45
2022-10-02T05:47:58.274Z,13.47
2022-10-02T05:51:23.652Z,13.51
2022-10-02T05:54:49.066Z,13.54
2022-10-02T05:58:14.421Z,13.54
2022-10-02T06:01:39.879Z,13.54
2022-10-02T06:05:05.200Z,13.55
2022-10-02T06:08:30.616Z,13.57
2022-10-02T06:11:55.990Z,13.59
2022-10-02T06:15:21.343Z,13.62
2022-10-02T06:18:46.770Z,13.66
2022-10-02T06:22:12.132Z,13.69
2022-10-02T06:25:37.512Z,13.7
2022-10-02T06:29:02.921Z,13.68
2022-10-02T06:32:28.255Z,13.69
2022-10-02T06:35:53.600Z,13.74
2022-10-02T06:39:18.979Z,13.74
2022-10-02T06:42:44.310Z,13.79
2022-10-02T06:46:09.887Z,13.82
2022-10-02T06:49:35.051Z,13.88
2022-10-02T06:53:00.374Z,13.92
2022-10-02T06:56:25.735Z,13.95
2022-10-02T06:59:51.209Z,13.98
2022-10-02T07:03:16.597Z,14.01
2022-10-02T07:06:41.937Z,14.03
2022-10-02T07:10:07.301Z,14.09
2022-10-02T07:13:32.674Z,14.13
2022-10-02T07:16:58.082Z,14.15
2022-10-02T07:20:24.127Z,14.2
2022-10-02T07:23:49.506Z,14.24
2022-10-02T07:27:14.894Z,14.28
2022-10-02T07:30:40.273Z,14.27
2022-10-02T07:34:05.665Z,14.31
2022-10-02T07:37:31.078Z,14.39
2022-10-02T07:40:59.863Z,14.45
2022-10-02T07:44:21.805Z,14.5
2022-10-02T07:47:47.191Z,14.55
2022-10-02T07:51:12.542Z,14.59
2022-10-02T07:54:37.971Z,14.6
2022-10-02T07:58:03.323Z,14.69
2022-10-02T08:01:28.674Z,14.76
2022-10-02T08:04:54.059Z,14.82
2022-10-02T08:08:19.436Z,14.89
2022-10-02T08:11:48.647Z,14.91
2022-10-02T08:15:10.171Z,14.91
2022-10-02T08:18:35.974Z,14.85
2022-10-02T08:22:00.901Z,14.8
2022-10-02T08:25:26.299Z,14.75
2022-10-02T08:28:51.726Z,14.74
2022-10-02T08:32:17.067Z,14.75
2022-10-02T08:35:42.438Z,14.77
2022-10-02T08:39:07.782Z,14.77
2022-10-02T08:42:33.155Z,14.78
2022-10-02T08:45:58.614Z,14.82
2022-10-02T08:49:23.906Z,14.88
2022-10-02T08:52:49.305Z,14.96
2022-10-02T08:56:19.238Z,15.04
2022-10-02T08:59:40.044Z,15.09
2022-10-02T09:03:05.438Z,15.09
2022-10-02T09:06:30.822Z,15.1
2022-10-02T09:09:56.216Z,15.1
2022-10-02T09:13:21.635Z,15.13
2022-10-02T09:16:47.044Z,15.14
2022-10-02T09:20:12.409Z,15.15
2022-10-02T09:23:37.739Z,15.13
2022-10-02T09:27:03.112Z,15.11
2022-10-02T09:30:28.509Z,15.09
2022-10-02T09:33:53.886Z,15.16
2022-10-02T09:37:19.323Z,15.21
2022-10-02T09:40:44.672Z,15.27
2022-10-02T09:44:10.026Z,15.32
2022-10-02T09:47:35.421Z,15.39
2022-10-02T09:51:00.777Z,15.44
2022-10-02T09:54:26.199Z,15.48
2022-10-02T09:57:51.507Z,15.49
2022-10-02T10:01:16.909Z,15.48
2022-10-02T10:05:04.341Z,15.44
2022-10-02T10:08:07.607Z,15.39
2022-10-02T10:11:33.003Z,15.34
2022-10-02T10:14:58.342Z,15.34
2022-10-02T10:18:23.723Z,15.35
2022-10-02T10:21:49.128Z,15.39
2022-10-02T10:25:14.480Z,15.39
2022-10-02T10:28:39.920Z,15.4
2022-10-02T10:32:05.325Z,15.39
2022-10-02T10:35:30.653Z,15.35
2022-10-02T10:38:55.995Z,15.26
2022-10-02T10:42:21.358Z,15.12
2022-10-02T10:45:46.734Z,15.01
2022-10-02T10:49:11.983Z,14.93
2022-10-02T10:52:37.435Z,14.9
2022-10-02T10:56:02.827Z,14.85
2022-10-02T10:59:28.176Z,14.86
2022-10-02T11:02:53.605Z,14.91
2022-10-02T11:06:18.977Z,15.02
2022-10-02T11:09:45.181Z,15.11
2022-10-02T11:13:11.128Z,15.2
2022-10-02T11:16:36.648Z,15.31
2022-10-02T11:20:02.043Z,15.41
2022-10-02T11:23:27.406Z,15.52
2022-10-02T11:26:52.781Z,15.58
2022-10-02T11:30:18.196Z,15.67
2022-10-02T11:33:43.585Z,15.76
2022-10-02T11:37:08.997Z,15.82
2022-10-02T11:40:34.343Z,15.84
2022-10-02T11:43:59.718Z,15.89
2022-10-02T11:47:25.138Z,15.93
2022-10-02T11:50:50.544Z,16.01
2022-10-02T11:54:15.966Z,16.07
2022-10-02T11:57:41.282Z,16.049999
2022-10-02T12:01:06.671Z,16
2022-10-02T12:04:32.036Z,15.96
2022-10-02T12:07:57.395Z,15.97
2022-10-02T12:11:22.852Z,15.99
2022-10-02T12:14:48.189Z,15.99
2022-10-02T12:18:15.330Z,15.98
2022-10-02T12:21:39.307Z,15.98
2022-10-02T12:25:04.316Z,15.98
2022-10-02T12:28:32.943Z,16
2022-10-02T12:31:58.478Z,16.01
2022-10-02T12:35:39.645Z,16
2022-10-02T12:39:05.013Z,15.99
2022-10-02T12:42:30.357Z,15.99
2022-10-02T12:45:55.800Z,16
2022-10-02T12:49:21.102Z,15.98
2022-10-02T12:52:46.466Z,15.99
2022-10-02T12:56:11.921Z,15.96
2022-10-02T12:59:37.339Z,15.97
2022-10-02T13:03:02.862Z,16.01
2022-10-02T13:06:28.237Z,16
2022-10-02T13:09:53.692Z,16
2022-10-02T13:13:19.155Z,15.96
2022-10-02T13:16:44.588Z,15.96
2022-10-02T13:20:09.982Z,15.97
2022-10-02T13:23:37.773Z,15.98
2022-10-02T13:27:00.850Z,16.02
2022-10-02T13:30:26.322Z,16.030001
2022-10-02T13:33:51.778Z,16.030001
2022-10-02T13:37:17.268Z,16.02
2022-10-02T13:40:42.696Z,16
2022-10-02T13:44:08.186Z,15.96
2022-10-02T13:47:33.607Z,16
2022-10-02T13:50:59.024Z,16.040001
2022-10-02T13:54:24.512Z,16.059999
2022-10-02T13:57:49.967Z,16.07
2022-10-02T14:01:15.449Z,16.049999
2022-10-02T14:04:40.878Z,16.040001
2022-10-02T14:08:06.361Z,16.07
2022-10-02T14:11:31.888Z,16.07
2022-10-02T14:14:57.242Z,16.1
2022-10-02T14:18:22.650Z,16.129999
2022-10-02T14:21:48.019Z,16.16
2022-10-02T14:25:13.381Z,16.18
2022-10-02T14:28:38.772Z,16.209999
2022-10-02T15:03:20.092Z,13.9
2022-10-02T15:06:45.342Z,14.85
2022-10-02T15:10:10.625Z,15.1
2022-10-02T15:13:35.910Z,15.35
2022-10-02T15:17:01.425Z,15.56
2022-10-02T15:20:28.059Z,15.73
2022-10-02T15:23:54.091Z,15.85
2022-10-02T15:27:19.932Z,15.92
2022-10-02T15:30:45.206Z,15.99
2022-10-02T15:34:10.890Z,16.030001
2022-10-02T15:37:37.012Z,16.01
2022-10-02T15:41:02.523Z,15.97
2022-10-02T15:44:27.811Z,15.96
2022-10-02T15:47:53.067Z,15.93
2022-10-02T15:51:18.350Z,15.94
2022-10-02T15:54:43.678Z,15.96
2022-10-02T15:58:08.976Z,15.94
2022-10-02T16:01:34.572Z,15.9
2022-10-02T16:04:59.563Z,15.84
2022-10-02T16:08:24.858Z,15.81
2022-10-02T16:11:50.165Z,15.79
2022-10-02T16:15:15.429Z,15.73
2022-10-02T16:18:40.671Z,15.66
2022-10-02T16:22:05.968Z,15.58
2022-10-02T16:25:31.267Z,15.51
2022-10-02T16:28:56.567Z,15.43
2022-10-02T16:32:21.824Z,15.4
2022-10-02T16:35:47.149Z,15.37
2022-10-02T16:39:12.488Z,15.36
2022-10-02T16:42:37.827Z,15.31
2022-10-02T16:46:03.226Z,15.27
2022-10-02T16:49:28.436Z,15.24
2022-10-02T16:52:53.747Z,15.24
2022-10-02T16:56:19.044Z,15.24
2022-10-02T16:59:44.576Z,15.23
2022-10-02T17:03:10.081Z,15.22
2022-10-02T17:06:35.589Z,15.22
2022-10-02T17:10:00.898Z,15.24
2022-10-02T17:13:26.317Z,15.26
2022-10-02T17:16:51.798Z,15.29
2022-10-02T17:20:17.228Z,15.3
2022-10-02T17:23:42.665Z,15.27
2022-10-02T17:27:08.074Z,15.25
2022-10-02T17:30:33.494Z,15.23
2022-10-02T17:33:58.955Z,15.22
2022-10-02T17:37:25.358Z,15.19
2022-10-02T17:40:50.777Z,15.14
2022-10-02T17:44:16.254Z,15.07
2022-10-02T17:47:41.649Z,14.99
2022-10-02T17:51:18.744Z,14.94
2022-10-02T17:54:32.487Z,14.92
2022-10-02T17:57:57.917Z,14.86
2022-10-02T18:01:23.351Z,14.82
2022-10-02T18:04:48.732Z,14.77
2022-10-02T18:08:14.172Z,14.71
2022-10-02T18:11:39.680Z,14.68
2022-10-02T18:15:05.073Z,14.62
2022-10-02T18:18:30.490Z,14.6
2022-10-02T18:21:55.929Z,14.56
2022-10-02T18:25:21.395Z,14.52
2022-10-02T18:28:46.849Z,14.51
2022-10-02T18:32:12.273Z,14.46
2022-10-02T18:35:37.678Z,14.4
2022-10-02T18:39:03.131Z,14.33
2022-10-02T18:42:28.559Z,14.29
2022-10-02T18:45:54.063Z,14.29
2022-10-02T18:49:19.373Z,14.19
2022-10-02T18:52:44.857Z,14.05
2022-10-02T18:56:11.199Z,13.95
2022-10-02T18:59:36.608Z,13.88
2022-10-02T19:03:01.993Z,13.82
2022-10-02T19:06:27.420Z,13.77
2022-10-02T19:09:52.857Z,13.73
2022-10-02T19:13:18.601Z,13.66
2022-10-02T19:16:43.829Z,13.64
2022-10-02T19:20:09.238Z,13.65
2022-10-02T19:23:34.614Z,13.68
2022-10-02T19:26:59.977Z,13.69
2022-10-02T19:30:25.391Z,13.69
2022-10-02T19:33:50.787Z,13.69
2022-10-02T19:37:16.280Z,13.67
2022-10-02T19:40:41.659Z,13.65
2022-10-02T19:44:07.055Z,13.65
2022-10-02T19:47:32.447Z,13.63
2022-10-02T19:50:57.851Z,13.58
2022-10-02T19:54:23.291Z,13.57
2022-10-02T19:57:48.698Z,13.56
2022-10-02T20:01:14.190Z,13.52
2022-10-02T20:04:39.594Z,13.52
2022-10-02T20:08:06.915Z,13.56
2022-10-02T20:11:30.482Z,13.57
2022-10-02T20:14:55.910Z,13.6
2022-10-02T20:18:21.332Z,13.64
2022-10-02T20:21:46.752Z,13.68
2022-10-02T20:25:12.182Z,13.75
2022-10-02T20:28:37.699Z,13.79
2022-10-02T20:32:03.203Z,13.83
2022-10-02T20:35:28.593Z,13.86
2022-10-02T20:38:54.084Z,13.91
2022-10-02T20:42:19.550Z,13.92
2022-10-02T20:45:45.019Z,13.9
2022-10-02T20:49:10.414Z,13.91
2022-10-02T20:52:35.876Z,13.94
2022-10-02T20:56:01.350Z,13.93
2022-10-02T20:59:26.791Z,13.94
2022-10-02T21:02:52.260Z,13.97
2022-10-02T21:06:17.766Z,13.98
2022-10-02T21:09:43.206Z,13.99
2022-10-02T21:13:08.636Z,14.02
2022-10-02T21:16:34.214Z,14.06
2022-10-02T21:19:59.551Z,14.08
2022-10-02T21:23:25.052Z,14.1
2022-10-02T21:26:50.860Z,14.13
2022-10-02T21:30:16.277Z,14.14
2022-10-02T21:33:41.790Z,14.14
2022-10-02T21:37:07.249Z,14.13
2022-10-02T21:40:32.625Z,14.15
2022-10-02T21:43:58.174Z,14.19
2022-10-02T21:47:23.577Z,14.2
2022-10-02T21:50:49.003Z,14.22
2022-10-02T21:54:14.468Z,14.21
2022-10-02T21:57:39.938Z,14.18
2022-10-02T22:01:05.442Z,14.16
2022-10-02T22:04:30.882Z,14.18
2022-10-02T22:07:56.288Z,14.18
2022-10-02T22:11:21.759Z,14.19
2022-10-02T22:14:47.251Z,14.2
2022-10-02T22:18:12.770Z,14.23
2022-10-02T22:21:38.433Z,14.22
2022-10-02T22:25:03.634Z,14.22
2022-10-02T22:28:29.172Z,14.21
2022-10-02T22:31:54.630Z,14.19
2022-10-02T22:35:20.122Z,14.16
2022-10-02T22:38:45.662Z,14.14
2022-10-02T22:42:11.042Z,14.14
2022-10-02T22:45:36.488Z,14.1
2022-10-02T22:49:01.965Z,14.07
2022-10-02T22:52:27.431Z,14.04
2022-10-02T22:55:52.942Z,14
2022-10-02T22:59:18.427Z,13.97
2022-10-02T23:02:44.085Z,13.95
2022-10-02T23:06:09.364Z,13.93
2022-10-02T23:09:34.811Z,13.88
2022-10-02T23:13:00.269Z,13.87
2022-10-02T23:16:25.800Z,13.87
2022-10-02T23:19:51.163Z,13.85
2022-10-02T23:23:16.544Z,13.87
2022-10-02T23:26:41.911Z,13.82
2022-10-02T23:30:07.329Z,13.8
2022-10-02T23:33:32.868Z,13.74
2022-10-02T23:36:58.290Z,13.65
2022-10-02T23:40:23.653Z,13.6
2022-10-02T23:43:49.070Z,13.57
2022-10-02T23:47:14.482Z,13.55
2022-10-02T23:50:39.864Z,13.55
2022-10-02T23:54:05.303Z,13.55
2022-10-02T23:57:30.671Z,13.56
